Time;durP1;ratioP1;P1;durP2;ratioP2;P2;SDS_P1;SDS_P2;PMS_P1;PMS_P2;Temp;Humidity;BMP_temperature;BMP_pressure;BME280_temperature;BME280_humidity;BME280_pressure;Samples;Min_cycle;Max_cycle;Signal;HPM_P1;HPM_P2
2024/01/02 00:03:30;;;;;;;20.10;2.63;;;;;;;4.85;100.00;99333.78;10425799;28;21198;-79
2024/01/02 00:08:33;;;;;;;14.55;2.65;;;;;;;4.98;100.00;99323.06;10451624;28;20055;-79
2024/01/02 00:13:36;;;;;;;16.02;2.50;;;;;;;4.97;100.00;99316.91;10446840;28;20475;-78
2024/01/02 00:18:40;;;;;;;20.17;4.50;;;;;;;5.05;100.00;99313.72;10438761;28;21491;-79
2024/01/02 00:23:44;;;;;;;23.13;3.50;;;;;;;5.08;100.00;99294.00;10439457;28;20087;-78
2024/01/02 00:28:47;;;;;;;17.88;2.47;;;;;;;5.12;100.00;99282.97;10438907;28;20436;-78
2024/01/02 00:33:51;;;;;;;22.33;3.70;;;;;;;5.20;100.00;99266.44;10452124;28;20060;-77
2024/01/02 00:38:54;;;;;;;16.38;3.13;;;;;;;5.19;100.00;99262.09;10442532;28;20053;-78
2024/01/02 00:43:57;;;;;;;15.35;3.03;;;;;;;5.17;100.00;99248.03;10448690;28;20052;-78
2024/01/02 00:49:02;;;;;;;17.35;3.08;;;;;;;5.25;100.00;99243.81;10465773;28;20052;-79
2024/01/02 00:54:05;;;;;;;15.80;3.13;;;;;;;5.27;100.00;99225.06;10454047;28;20056;-78
2024/01/02 00:59:08;;;;;;;10.98;3.25;;;;;;;5.15;100.00;99207.38;10453632;28;20612;-78
2024/01/02 01:04:12;;;;;;;12.55;2.88;;;;;;;5.26;100.00;99200.22;10450624;28;21194;-79
2024/01/02 01:09:15;;;;;;;15.13;2.45;;;;;;;5.33;100.00;99191.78;10450605;28;20057;-78
2024/01/02 01:14:19;;;;;;;18.17;3.28;;;;;;;5.42;100.00;99183.06;10444401;28;20058;-78
2024/01/02 01:19:24;;;;;;;21.67;3.05;;;;;;;5.36;100.00;99172.91;10443838;28;20065;-79
2024/01/02 01:24:27;;;;;;;12.00;2.33;;;;;;;5.40;100.00;99156.56;10401213;28;20512;-79
2024/01/02 01:29:30;;;;;;;14.63;2.67;;;;;;;5.44;100.00;99143.84;10409977;28;20052;-79
2024/01/02 01:34:34;;;;;;;13.02;2.45;;;;;;;5.38;100.00;99121.22;10402593;28;20049;-79
2024/01/02 01:39:39;;;;;;;11.43;2.80;;;;;;;5.45;100.00;99119.75;10402858;28;20072;-78
2024/01/02 01:44:42;;;;;;;11.18;2.00;;;;;;;5.44;100.00;99117.22;10417108;28;20059;-80
2024/01/02 01:49:47;;;;;;;6.20;1.55;;;;;;;5.31;100.00;99103.19;10411774;28;20049;-78
2024/01/02 01:54:50;;;;;;;7.50;2.00;;;;;;;5.25;100.00;99085.88;10414651;28;20932;-79
2024/01/02 01:59:53;;;;;;;9.27;1.52;;;;;;;5.27;100.00;99074.16;10405910;28;20056;-79
2024/01/02 02:05:00;;;;;;;7.68;1.65;;;;;;;5.18;100.00;99053.56;10404894;28;20049;-78
2024/01/02 02:10:04;;;;;;;8.20;1.50;;;;;;;5.17;100.00;99032.41;10410882;28;20045;-79
2024/01/02 02:15:08;;;;;;;6.20;1.33;;;;;;;5.16;100.00;99017.41;10442726;28;20087;-79
2024/01/02 02:20:20;;;;;;;6.75;1.17;;;;;;;5.05;100.00;99000.47;10438336;28;20057;-79
2024/01/02 02:25:26;;;;;;;8.30;1.67;;;;;;;5.11;100.00;98988.50;10421743;28;20551;-77
2024/01/02 02:30:30;;;;;;;7.20;1.58;;;;;;;5.05;100.00;98973.88;10400864;28;20117;-78
2024/01/02 02:35:33;;;;;;;12.68;1.42;;;;;;;5.08;100.00;98958.63;10393982;28;20109;-80
2024/01/02 02:40:38;;;;;;;7.85;1.25;;;;;;;4.95;100.00;98951.59;10391141;28;20112;-79
2024/01/02 02:45:41;;;;;;;3.72;1.23;;;;;;;4.98;100.00;98945.16;10393664;28;20060;-78
2024/01/02 02:50:44;;;;;;;11.23;1.45;;;;;;;4.95;100.00;98932.97;10371199;28;20133;-79
2024/01/02 02:55:48;;;;;;;7.72;1.40;;;;;;;5.02;100.00;98917.38;10392008;28;20049;-80
2024/01/02 03:00:51;;;;;;;4.78;1.30;;;;;;;4.89;100.00;98903.34;10381137;28;20093;-80
2024/01/02 03:05:54;;;;;;;8.20;1.67;;;;;;;4.88;100.00;98889.19;10404162;28;20049;-80
2024/01/02 03:10:59;;;;;;;8.85;1.70;;;;;;;4.80;100.00;98871.19;10388361;28;20065;-80
2024/01/02 03:16:02;;;;;;;5.50;1.63;;;;;;;4.80;100.00;98862.34;10387371;28;20042;-80
2024/01/02 03:21:06;;;;;;;10.82;1.80;;;;;;;4.77;100.00;98851.97;10372443;28;20053;-80
2024/01/02 03:26:11;;;;;;;5.28;1.20;;;;;;;4.73;100.00;98827.44;10370316;28;20049;-80
2024/01/02 03:31:15;;;;;;;9.27;1.58;;;;;;;4.70;100.00;98814.38;10423313;28;20104;-81
2024/01/02 03:36:18;;;;;;;5.50;1.70;;;;;;;4.71;100.00;98791.28;10375316;28;20060;-80
2024/01/02 03:41:22;;;;;;;6.45;1.50;;;;;;;4.64;100.00;98779.47;10399933;28;20073;-80
2024/01/02 03:46:25;;;;;;;6.03;1.27;;;;;;;4.74;100.00;98764.44;10412560;28;20050;-80
2024/01/02 03:51:28;;;;;;;6.35;1.92;;;;;;;4.77;100.00;98732.25;10392665;28;20048;-79
2024/01/02 03:56:34;;;;;;;6.60;1.83;;;;;;;4.68;100.00;98715.25;10400650;28;20063;-80
2024/01/02 04:01:43;;;;;;;5.32;1.75;;;;;;;4.74;100.00;98714.72;10386590;28;20045;-80
2024/01/02 04:06:46;;;;;;;6.10;1.60;;;;;;;4.78;100.00;98688.75;10388306;28;20188;-80
2024/01/02 04:11:50;;;;;;;6.47;1.77;;;;;;;4.78;100.00;98683.41;10407163;28;20060;-80
2024/01/02 04:16:53;;;;;;;6.95;1.75;;;;;;;4.65;100.00;98664.13;10432826;28;20108;-80
2024/01/02 04:21:56;;;;;;;4.65;1.20;;;;;;;4.64;100.00;98659.81;10407330;28;20888;-80
2024/01/02 04:27:01;;;;;;;3.08;1.40;;;;;;;4.79;100.00;98639.88;10413696;28;20073;-80
2024/01/02 04:32:04;;;;;;;3.58;1.40;;;;;;;4.80;100.00;98626.47;10445386;28;20800;-79
2024/01/02 04:37:08;;;;;;;5.60;2.17;;;;;;;4.78;100.00;98599.13;10392058;28;20049;-80
2024/01/02 04:42:12;;;;;;;7.20;1.70;;;;;;;4.83;100.00;98602.25;10371538;28;20046;-79
2024/01/02 04:47:15;;;;;;;5.82;1.20;;;;;;;4.88;100.00;98577.06;10382274;28;20053;-79
2024/01/02 04:52:18;;;;;;;4.93;1.40;;;;;;;4.81;100.00;98560.78;10404099;28;20295;-80
2024/01/02 04:57:22;;;;;;;2.60;1.30;;;;;;;4.78;100.00;98545.09;10403446;28;20099;-81
2024/01/02 05:02:25;;;;;;;3.63;1.48;;;;;;;4.79;100.00;98550.28;10393227;28;20507;-80
2024/01/02 05:07:28;;;;;;;2.03;1.05;;;;;;;4.81;100.00;98539.50;10376967;28;20049;-80
2024/01/02 05:12:33;;;;;;;3.50;1.20;;;;;;;4.77;100.00;98519.47;10378503;28;22267;-81
2024/01/02 05:17:35;;;;;;;1.83;0.93;;;;;;;4.79;100.00;98497.06;10415206;28;20053;-81
2024/01/02 05:22:39;;;;;;;3.47;1.00;;;;;;;4.80;100.00;98484.59;10387650;28;20060;-82
2024/01/02 05:27:43;;;;;;;1.48;0.93;;;;;;;4.83;100.00;98474.56;10371830;28;20061;-80
2024/01/02 05:32:46;;;;;;;2.03;0.55;;;;;;;4.61;100.00;98442.84;10366021;28;20670;-81
2024/01/02 05:37:49;;;;;;;2.25;0.40;;;;;;;4.43;100.00;98436.47;10386188;28;20069;-80
2024/01/02 05:42:54;;;;;;;1.38;0.50;;;;;;;4.45;100.00;98415.91;10379596;28;20523;-80
2024/01/02 05:47:57;;;;;;;0.50;0.30;;;;;;;4.57;100.00;98398.88;10367819;28;20058;-81
2024/01/02 05:53:00;;;;;;;1.25;0.43;;;;;;;4.47;100.00;98377.56;10408175;28;20063;-79
2024/01/02 05:58:04;;;;;;;0.98;0.30;;;;;;;4.55;100.00;98353.81;10397312;28;20124;-79
2024/01/02 06:03:07;;;;;;;0.45;0.30;;;;;;;4.48;100.00;98347.34;10406595;28;20364;-80
2024/01/02 06:08:10;;;;;;;1.23;0.30;;;;;;;4.59;100.00;98349.06;10380239;28;20053;-82
2024/01/02 06:13:15;;;;;;;0.57;0.20;;;;;;;4.32;100.00;98339.03;10394111;28;20042;-82
2024/01/02 06:18:18;;;;;;;0.20;0.10;;;;;;;4.43;100.00;98320.31;10391849;28;20057;-81
2024/01/02 06:23:21;;;;;;;0.35;0.13;;;;;;;4.24;100.00;98307.81;10375583;28;20053;-81
2024/01/02 06:28:26;;;;;;;1.50;0.13;;;;;;;4.32;100.00;98288.53;10398168;28;20061;-80
2024/01/02 06:33:29;;;;;;;2.08;0.10;;;;;;;4.27;100.00;98280.13;10388217;28;20049;-82
2024/01/02 06:38:32;;;;;;;0.73;0.20;;;;;;;4.39;100.00;98266.59;10405260;28;20049;-80
2024/01/02 06:43:36;;;;;;;0.20;0.20;;;;;;;4.30;100.00;98263.91;10354404;28;20424;-82
2024/01/02 06:48:41;;;;;;;0.65;0.20;;;;;;;4.28;100.00;98258.75;10385189;28;20056;-81
2024/01/02 06:53:44;;;;;;;0.10;0.10;;;;;;;4.35;100.00;98262.53;10384283;28;20519;-81
2024/01/02 06:58:48;;;;;;;0.10;0.10;;;;;;;4.27;100.00;98254.38;10374553;28;20693;-80
2024/01/02 07:03:51;;;;;;;0.47;0.20;;;;;;;4.43;100.00;98245.06;10381866;28;20049;-79
2024/01/02 07:08:54;;;;;;;0.63;0.10;;;;;;;4.55;100.00;98251.91;10378514;28;20046;-80
2024/01/02 07:13:59;;;;;;;0.25;0.17;;;;;;;4.22;100.00;98211.44;10402649;28;20788;-80
2024/01/02 07:19:02;;;;;;;0.95;0.10;;;;;;;4.52;100.00;98228.28;10379312;28;20059;-80
2024/01/02 07:24:06;;;;;;;0.15;0.10;;;;;;;4.66;100.00;98237.66;10406437;28;20045;-80
2024/01/02 07:29:10;;;;;;;0.30;0.30;;;;;;;4.66;100.00;98253.59;10443848;28;20049;-81
2024/01/02 07:34:13;;;;;;;0.20;0.20;;;;;;;4.62;100.00;98215.84;10427348;28;20130;-81
2024/01/02 07:39:16;;;;;;;0.85;0.30;;;;;;;4.54;100.00;98215.69;10429277;28;20053;-80
2024/01/02 07:44:22;;;;;;;0.45;0.30;;;;;;;4.89;100.00;98217.78;10408865;28;20046;-80
2024/01/02 07:49:25;;;;;;;0.73;0.25;;;;;;;4.89;100.00;98211.63;10381045;28;20060;-79
2024/01/02 07:54:28;;;;;;;1.27;0.40;;;;;;;5.03;100.00;98228.03;10380815;28;20052;-81
2024/01/02 07:59:33;;;;;;;2.47;0.50;;;;;;;4.98;100.00;98200.97;10373078;28;20049;-80
2024/01/02 08:04:36;;;;;;;0.40;0.30;;;;;;;5.24;100.00;98197.75;10374998;28;20049;-80
2024/01/02 08:09:40;;;;;;;0.30;0.30;;;;;;;5.26;100.00;98174.47;10382429;28;20702;-79
2024/01/02 08:14:44;;;;;;;0.50;0.30;;;;;;;5.48;100.00;98186.59;10393668;28;20054;-80
2024/01/02 08:19:48;;;;;;;0.85;0.38;;;;;;;5.54;100.00;98167.41;10381943;28;20052;-80
2024/01/02 08:24:51;;;;;;;0.85;0.70;;;;;;;5.66;100.00;98187.53;10397875;28;20057;-80
2024/01/02 08:29:56;;;;;;;2.20;1.25;;;;;;;5.81;100.00;98187.84;10378717;28;20041;-82
2024/01/02 08:34:59;;;;;;;1.40;1.17;;;;;;;5.93;100.00;98175.22;10381725;28;20769;-79
2024/01/02 08:40:03;;;;;;;1.67;1.58;;;;;;;6.06;100.00;98170.38;10397871;28;20076;-80
2024/01/02 08:45:10;;;;;;;1.60;1.50;;;;;;;6.27;100.00;98180.72;10398507;28;20068;-80
2024/01/02 08:50:13;;;;;;;1.08;0.70;;;;;;;6.37;100.00;98191.34;10383299;28;20085;-79
2024/01/02 08:55:16;;;;;;;0.70;0.65;;;;;;;6.51;100.00;98169.47;10380931;28;20101;-80
2024/01/02 09:00:21;;;;;;;1.08;0.95;;;;;;;6.59;100.00;98174.06;10381785;28;20092;-80
2024/01/02 09:05:26;;;;;;;0.80;0.80;;;;;;;6.88;100.00;98173.81;10368291;28;20042;-81
2024/01/02 09:10:29;;;;;;;1.30;1.20;;;;;;;6.84;100.00;98191.13;10381055;28;21469;-80
2024/01/02 09:15:35;;;;;;;1.70;1.60;;;;;;;7.14;100.00;98183.72;10378371;28;20658;-80
2024/01/02 09:20:38;;;;;;;2.38;1.58;;;;;;;7.04;100.00;98183.78;10394387;28;20040;-80
2024/01/02 09:25:46;;;;;;;1.50;1.40;;;;;;;7.03;100.00;98196.31;10395360;28;20045;-81
2024/01/02 09:30:51;;;;;;;1.58;1.17;;;;;;;7.32;100.00;98202.34;10382708;28;20211;-81
2024/01/02 09:35:54;;;;;;;1.67;1.52;;;;;;;7.16;100.00;98209.25;10389980;28;20052;-80
2024/01/02 09:41:20;;;;;;;3.30;3.00;;;;;;;7.47;100.00;98214.97;10375489;28;20104;-79
2024/01/02 09:46:43;;;;;;;3.85;3.40;;;;;;;7.54;100.00;98207.16;10384653;28;20049;-81
2024/01/02 09:52:05;;;;;;;4.90;4.38;;;;;;;7.70;100.00;98209.09;10383708;28;20052;-79
2024/01/02 09:57:17;;;;;;;5.20;4.37;;;;;;;7.75;100.00;98221.97;10364233;28;20054;-80
2024/01/02 10:02:39;;;;;;;6.25;5.65;;;;;;;7.91;100.00;98209.53;10384893;28;20283;-81
2024/01/02 10:07:58;;;;;;;7.68;5.78;;;;;;;8.11;100.00;98207.44;10383383;28;20077;-79
2024/01/02 10:13:22;;;;;;;8.82;6.72;;;;;;;8.05;100.00;98197.38;10390308;28;20176;-80
2024/01/02 10:18:49;;;;;;;10.55;7.57;;;;;;;8.28;100.00;98202.13;10469982;28;20116;-80
2024/01/02 10:24:01;;;;;;;11.45;7.20;;;;;;;8.17;100.00;98205.94;10454040;28;20041;-80
2024/01/02 10:29:08;;;;;;;8.32;7.15;;;;;;;8.16;100.00;98206.97;10434519;28;20051;-80
2024/01/02 10:34:23;;;;;;;13.15;9.90;;;;;;;8.57;100.00;98199.91;10429331;28;20194;-81
2024/01/02 10:39:35;;;;;;;8.02;6.70;;;;;;;8.44;100.00;98198.69;10424984;28;20042;-78
2024/01/02 10:44:44;;;;;;;11.80;8.82;;;;;;;8.37;100.00;98193.16;10380003;28;20049;-79
2024/01/02 10:49:53;;;;;;;12.20;9.40;;;;;;;8.55;100.00;98193.03;10375509;28;20788;-80
2024/01/02 10:55:04;;;;;;;14.50;7.45;;;;;;;8.62;100.00;98196.75;10401135;28;20091;-79
2024/01/02 11:00:18;;;;;;;12.50;10.27;;;;;;;9.03;100.00;98181.53;10388635;28;20042;-79
2024/01/02 11:05:29;;;;;;;15.07;11.52;;;;;;;9.03;100.00;98196.78;10371425;28;20049;-79
2024/01/02 11:10:39;;;;;;;12.07;10.43;;;;;;;8.96;100.00;98204.63;10341075;28;20980;-80
2024/01/02 11:15:43;;;;;;;13.15;10.40;;;;;;;8.68;100.00;98193.41;10372817;28;20606;-78
2024/01/02 11:20:56;;;;;;;13.57;10.38;;;;;;;9.12;100.00;98186.88;10375557;28;20037;-78
2024/01/02 11:26:05;;;;;;;10.30;8.05;;;;;;;9.11;100.00;98182.56;10369126;28;21149;-79
2024/01/02 11:31:18;;;;;;;12.13;9.20;;;;;;;8.97;100.00;98181.38;10369541;28;20554;-79
2024/01/02 11:36:27;;;;;;;15.05;9.93;;;;;;;9.02;100.00;98170.97;10389988;28;20429;-79
2024/01/02 11:41:50;;;;;;;15.15;11.43;;;;;;;9.32;100.00;98174.78;10382419;28;20061;-79
2024/01/02 11:47:03;;;;;;;16.08;11.75;;;;;;;9.15;100.00;98157.91;10361108;28;20076;-79
2024/01/02 11:52:16;;;;;;;15.13;11.95;;;;;;;9.40;100.00;98134.59;10377342;28;20033;-79
2024/01/02 11:57:26;;;;;;;13.60;10.48;;;;;;;9.12;100.00;98138.69;10383793;28;20720;-79
2024/01/02 12:02:46;;;;;;;14.07;10.18;;;;;;;9.25;100.00;98123.75;10375661;28;20045;-78
2024/01/02 12:07:56;;;;;;;11.65;9.02;;;;;;;9.43;100.00;98130.75;10378429;28;20054;-80
2024/01/02 12:13:08;;;;;;;10.63;7.43;;;;;;;9.47;100.00;98119.50;10376976;28;20050;-79
2024/01/02 12:18:13;;;;;;;13.05;7.75;;;;;;;9.62;100.00;98116.94;10362387;28;20057;-78
2024/01/02 12:23:20;;;;;;;9.32;7.30;;;;;;;9.69;100.00;98109.06;10379259;28;20115;-78
2024/01/02 12:28:25;;;;;;;8.85;6.38;;;;;;;9.57;100.00;98099.72;10379784;28;20053;-78
2024/01/02 12:33:34;;;;;;;6.50;5.15;;;;;;;9.36;100.00;98077.03;10373357;28;20059;-80
2024/01/02 12:38:47;;;;;;;9.27;5.53;;;;;;;9.56;100.00;98087.34;10406299;28;20045;-80
2024/01/02 12:43:53;;;;;;;6.45;4.18;;;;;;;9.57;100.00;98084.50;10399938;28;20053;-79
2024/01/02 12:49:08;;;;;;;5.13;3.38;;;;;;;9.45;100.00;98073.28;10386138;28;20048;-80
2024/01/02 12:54:18;;;;;;;;;;;;;;;9.14;100.00;98067.03;10403013;28;20126;-80
2024/01/02 12:59:27;;;;;;;2.53;2.10;;;;;;;9.25;100.00;98050.59;10372229;28;19972;-80
2024/01/02 13:04:34;;;;;;;3.00;2.70;;;;;;;9.44;100.00;98052.03;10388017;28;20678;-80
2024/01/02 13:09:39;;;;;;;3.47;3.17;;;;;;;9.43;100.00;98040.47;10380311;28;20211;-80
2024/01/02 13:14:43;;;;;;;5.13;3.90;;;;;;;9.36;100.00;98046.72;10377640;28;20049;-80
2024/01/02 13:19:46;;;;;;;3.08;2.88;;;;;;;9.27;100.00;98041.38;10390480;28;20148;-81
2024/01/02 13:24:53;;;;;;;3.03;2.65;;;;;;;9.01;100.00;98033.59;10386175;28;20041;-80
2024/01/02 13:29:56;;;;;;;2.63;2.42;;;;;;;9.20;100.00;98037.72;10376511;28;20049;-79
2024/01/02 13:35:15;;;;;;;4.80;2.40;;;;;;;8.96;100.00;98022.56;10374623;28;20061;-79
2024/01/02 13:40:21;;;;;;;1.90;1.80;;;;;;;9.23;100.00;98020.47;10380680;28;20115;-79
2024/01/02 13:45:32;;;;;;;3.53;1.70;;;;;;;9.05;100.00;98021.53;10379352;28;20065;-79
2024/01/02 13:50:38;;;;;;;1.95;1.23;;;;;;;8.84;100.00;98019.41;10400750;28;20107;-79
2024/01/02 13:55:42;;;;;;;0.82;0.82;;;;;;;8.69;100.00;98015.75;10421771;28;20037;-79
2024/01/02 14:00:47;;;;;;;0.80;0.80;;;;;;;8.87;100.00;98002.19;10423739;28;20098;-78
2024/01/02 14:05:56;;;;;;;0.63;0.63;;;;;;;8.59;100.00;98009.78;10418243;28;21274;-78
2024/01/02 14:11:08;;;;;;;0.75;0.50;;;;;;;8.60;100.00;97998.88;10420533;28;20107;-79
2024/01/02 14:16:13;;;;;;;0.93;0.20;;;;;;;8.24;100.00;98011.75;10427443;28;20037;-78
2024/01/02 14:21:21;;;;;;;0.30;0.30;;;;;;;8.44;100.00;97984.66;10416881;28;20053;-78
2024/01/02 14:26:33;;;;;;;0.75;0.55;;;;;;;8.54;100.00;97986.19;10426493;28;20061;-79
2024/01/02 14:31:51;;;;;;;0.93;0.40;;;;;;;8.82;100.00;97975.09;10419087;28;20087;-78
2024/01/02 14:37:01;;;;;;;1.30;0.50;;;;;;;8.76;100.00;97976.59;10416094;28;20029;-79
2024/01/02 14:42:34;;;;;;;0.63;0.63;;;;;;;8.64;100.00;97963.75;10425757;28;20041;-78
2024/01/02 14:47:48;;;;;;;0.40;0.30;;;;;;;8.45;100.00;97952.41;10405355;28;20049;-79
2024/01/02 14:53:14;;;;;;;0.20;0.13;;;;;;;8.27;100.00;97928.50;10399701;28;20045;-77
2024/01/02 14:58:45;;;;;;;0.93;0.17;;;;;;;8.36;100.00;97926.66;10412098;28;20075;-79
2024/01/02 15:03:53;;;;;;;0.10;0.10;;;;;;;8.11;100.00;97940.06;10395200;28;20083;-80
2024/01/02 15:09:07;;;;;;;0.30;0.10;;;;;;;8.11;100.00;97920.50;10414658;28;20053;-80
2024/01/02 15:14:45;;;;;;;0.20;0.15;;;;;;;8.42;100.00;97917.13;10385357;28;20215;-80
2024/01/02 15:20:08;;;;;;;0.10;0.10;;;;;;;8.02;100.00;97892.13;10388735;28;20052;-80
2024/01/02 15:25:19;;;;;;;0.50;0.40;;;;;;;8.22;100.00;97892.59;10405622;28;20038;-81
2024/01/02 15:30:23;;;;;;;0.50;0.35;;;;;;;8.22;100.00;97876.53;10410692;28;20057;-82
2024/01/02 15:35:32;;;;;;;2.08;0.52;;;;;;;8.22;100.00;97871.19;10392821;28;20670;-82
2024/01/02 15:40:37;;;;;;;0.85;0.40;;;;;;;8.40;100.00;97851.25;10398409;28;20070;-82
2024/01/02 15:45:52;;;;;;;0.38;0.38;;;;;;;8.37;100.00;97840.09;10390576;28;20056;-81
2024/01/02 15:51:11;;;;;;;0.68;0.50;;;;;;;8.20;100.00;97831.28;10402985;28;20075;-81
2024/01/02 15:56:22;;;;;;;0.50;0.50;;;;;;;8.24;100.00;97819.22;10414466;28;20114;-81
2024/01/02 16:01:30;;;;;;;1.35;0.40;;;;;;;7.90;100.00;97812.28;10415516;28;20053;-81
2024/01/02 16:07:08;;;;;;;1.30;0.47;;;;;;;8.00;100.00;97809.41;10410775;28;20041;-80
2024/01/02 16:12:25;;;;;;;0.35;0.35;;;;;;;8.12;100.00;97783.16;10404468;28;20071;-81
2024/01/02 16:17:55;;;;;;;0.47;0.47;;;;;;;8.11;100.00;97773.47;10410902;28;20408;-80
2024/01/02 16:23:29;;;;;;;0.52;0.45;;;;;;;7.97;100.00;97777.69;10399131;28;20076;-80
2024/01/02 16:28:43;;;;;;;1.70;0.40;;;;;;;8.09;100.00;97776.31;10407829;28;20057;-80
2024/01/02 16:34:16;;;;;;;0.52;0.47;;;;;;;8.09;100.00;97764.78;10406714;28;20046;-80
2024/01/02 16:39:26;;;;;;;1.65;0.50;;;;;;;8.10;100.00;97753.91;10433003;28;20076;-80
2024/01/02 16:44:31;;;;;;;0.57;0.57;;;;;;;8.05;100.00;97742.91;10398045;28;20061;-81
2024/01/02 16:49:44;;;;;;;0.50;0.40;;;;;;;7.92;100.00;97742.59;10378945;28;20053;-81
2024/01/02 16:54:47;;;;;;;2.63;0.70;;;;;;;7.91;100.00;97725.75;10375686;28;20037;-82
2024/01/02 16:59:50;;;;;;;0.93;0.30;;;;;;;7.82;100.00;97710.75;10387516;28;20051;-81
2024/01/02 17:04:55;;;;;;;0.98;0.50;;;;;;;7.93;100.00;97697.03;10404040;28;20045;-81
2024/01/02 17:09:59;;;;;;;0.63;0.38;;;;;;;7.74;100.00;97692.06;10383797;28;20072;-79
2024/01/02 17:15:04;;;;;;;0.43;0.43;;;;;;;7.79;100.00;97670.16;10368288;28;20045;-78
2024/01/02 17:20:10;;;;;;;0.60;0.60;;;;;;;7.86;100.00;97658.63;10381907;28;20049;-80
2024/01/02 17:25:13;;;;;;;0.50;0.40;;;;;;;7.94;100.00;97644.38;10380581;28;20042;-81
2024/01/02 17:30:16;;;;;;;0.82;0.38;;;;;;;7.93;100.00;97629.38;10402411;28;20405;-81
2024/01/02 17:35:28;;;;;;;1.00;0.70;;;;;;;7.94;100.00;97613.16;10380898;28;20083;-82
2024/01/02 17:40:33;;;;;;;0.53;0.40;;;;;;;7.91;100.00;97607.31;10379027;28;20103;-81
2024/01/02 17:45:38;;;;;;;1.30;0.60;;;;;;;8.04;100.00;97596.91;10371305;28;20171;-79
2024/01/02 17:50:47;;;;;;;1.52;0.63;;;;;;;7.83;100.00;97586.81;10370215;28;20232;-79
2024/01/02 17:55:54;;;;;;;1.23;0.55;;;;;;;7.87;100.00;97590.81;10376733;28;20416;-82
2024/01/02 18:01:06;;;;;;;3.65;0.88;;;;;;;7.91;100.00;97583.28;10389603;28;20049;-81
2024/01/02 18:06:22;;;;;;;0.85;0.55;;;;;;;8.02;100.00;97580.19;10395443;28;20056;-81
2024/01/02 18:11:31;;;;;;;1.15;0.50;;;;;;;7.86;100.00;97561.59;10378117;28;20056;-80
2024/01/02 18:16:49;;;;;;;0.50;0.50;;;;;;;7.91;100.00;97527.97;10394484;28;20048;-81
2024/01/02 18:21:58;;;;;;;0.30;0.30;;;;;;;8.05;100.00;97530.91;10427378;28;20044;-80
2024/01/02 18:27:18;;;;;;;1.02;0.32;;;;;;;7.90;100.00;97531.66;10431508;28;20050;-79
2024/01/02 18:32:24;;;;;;;3.35;0.55;;;;;;;8.19;100.00;97516.75;10437259;28;20049;-82
2024/01/02 18:37:36;;;;;;;2.53;0.60;;;;;;;7.99;100.00;97505.72;10432625;28;20109;-80
2024/01/02 18:42:49;;;;;;;0.80;0.50;;;;;;;7.90;100.00;97499.59;10432922;28;20056;-80
2024/01/02 18:48:00;;;;;;;2.92;0.65;;;;;;;7.77;100.00;97504.69;10445048;28;20053;-81
2024/01/02 18:53:13;;;;;;;0.60;0.60;;;;;;;7.58;100.00;97484.59;10408490;28;20045;-81
2024/01/02 18:58:16;;;;;;;4.28;1.65;;;;;;;8.06;100.00;97482.59;10386298;28;20533;-81
2024/01/02 19:03:22;;;;;;;0.90;0.60;;;;;;;7.78;100.00;97463.59;10400105;28;20646;-81
2024/01/02 19:08:26;;;;;;;1.92;0.73;;;;;;;7.92;100.00;97470.00;10381609;28;20056;-82
2024/01/02 19:13:29;;;;;;;2.15;0.30;;;;;;;7.85;100.00;97471.75;10369352;28;20048;-82
2024/01/02 19:18:32;;;;;;;0.98;0.68;;;;;;;8.05;100.00;97464.91;10419840;28;20455;-82
2024/01/02 19:23:40;;;;;;;0.75;0.40;;;;;;;8.12;100.00;97449.81;10381766;28;20420;-82
2024/01/02 19:28:45;;;;;;;0.68;0.43;;;;;;;8.13;100.00;97456.81;10385545;28;20052;-82
2024/01/02 19:33:48;;;;;;;0.90;0.68;;;;;;;8.33;100.00;97443.75;10384063;28;21135;-83
2024/01/02 19:38:53;;;;;;;0.52;0.52;;;;;;;8.20;100.00;97454.28;10390957;28;20045;-84
2024/01/02 19:43:56;;;;;;;2.28;0.40;;;;;;;8.29;100.00;97449.69;10418699;28;20053;-83
2024/01/02 19:49:00;;;;;;;1.27;0.65;;;;;;;8.33;100.00;97438.41;10384903;28;20156;-83
2024/01/02 19:54:05;;;;;;;0.60;0.50;;;;;;;8.27;100.00;97449.84;10385783;28;20052;-83
2024/01/02 19:59:08;;;;;;;1.75;0.40;;;;;;;8.26;100.00;97442.84;10382247;28;20049;-82
2024/01/02 20:04:17;;;;;;;0.32;0.32;;;;;;;8.28;100.00;97445.31;10388592;28;21204;-84
2024/01/02 20:09:41;;;;;;;0.57;0.32;;;;;;;8.42;100.00;97439.19;10409958;28;20049;-83
2024/01/02 20:14:50;;;;;;;0.98;0.70;;;;;;;8.53;100.00;97438.78;10365208;28;20409;-81
2024/01/02 20:19:54;;;;;;;0.82;0.40;;;;;;;8.59;100.00;97424.66;10363607;28;20060;-82
2024/01/02 20:24:59;;;;;;;1.17;0.50;;;;;;;8.73;100.00;97414.16;10377370;28;20598;-81
2024/01/02 20:30:05;;;;;;;0.43;0.38;;;;;;;8.58;100.00;97414.97;10385245;28;20047;-83
2024/01/02 20:35:24;;;;;;;0.20;0.20;;;;;;;8.64;100.00;97418.75;10398171;28;20078;-82
2024/01/02 20:40:41;;;;;;;1.70;0.30;;;;;;;8.63;100.00;97422.44;10397563;28;20048;-82
2024/01/02 20:45:44;;;;;;;1.65;0.50;;;;;;;8.89;100.00;97418.47;10392885;28;20060;-83
2024/01/02 20:50:49;;;;;;;1.45;0.43;;;;;;;8.96;100.00;97420.22;10388648;28;20040;-83
2024/01/02 20:55:54;;;;;;;0.60;0.30;;;;;;;8.91;100.00;97408.41;10406135;28;20873;-84
2024/01/02 21:00:57;;;;;;;0.85;0.47;;;;;;;8.93;100.00;97412.56;10409687;28;20079;-84
2024/01/02 21:06:20;;;;;;;1.10;0.30;;;;;;;9.22;100.00;97400.16;10404553;28;20472;-84
2024/01/02 21:11:25;;;;;;;2.35;0.70;;;;;;;9.36;100.00;97410.00;10382378;28;20057;-84
2024/01/02 21:16:29;;;;;;;3.25;0.60;;;;;;;9.36;100.00;97385.88;10381187;28;20042;-84
2024/01/02 21:21:35;;;;;;;4.05;0.80;;;;;;;9.33;100.00;97410.38;10414738;28;20558;-85
2024/01/02 21:26:39;;;;;;;1.15;0.40;;;;;;;9.31;100.00;97424.97;10383875;28;20592;-83
2024/01/02 21:31:43;;;;;;;1.92;0.43;;;;;;;9.15;100.00;97413.44;10384021;28;20102;-85
2024/01/02 21:36:46;;;;;;;3.33;1.20;;;;;;;9.29;100.00;97436.69;10379393;28;20064;-83
2024/01/02 21:41:50;;;;;;;5.90;1.27;;;;;;;9.25;100.00;97434.59;10380249;28;20054;-83
2024/01/02 21:46:57;;;;;;;4.13;0.63;;;;;;;9.36;100.00;97428.75;10392245;28;20050;-83
2024/01/02 21:52:47;;;;;;;4.57;1.00;;;;;;;9.22;100.00;97419.72;10386801;28;20092;-83
2024/01/02 21:57:56;;;;;;;4.68;0.95;;;;;;;9.46;100.00;97410.53;10369822;28;20051;-84
2024/01/02 22:03:10;;;;;;;3.15;1.00;;;;;;;9.54;100.00;97420.28;10370788;28;20033;-82
2024/01/02 22:08:27;;;;;;;4.80;0.82;;;;;;;9.47;100.00;97433.59;10379280;28;20452;-82
2024/01/02 22:13:48;;;;;;;4.70;1.42;;;;;;;9.41;100.00;97394.19;10368934;28;20483;-83
2024/01/02 22:19:13;;;;;;;1.50;0.60;;;;;;;9.59;99.43;97407.13;10384439;28;20044;-83
2024/01/02 22:24:45;;;;;;;4.25;0.63;;;;;;;9.54;100.00;97414.91;10377268;28;20060;-82
2024/01/02 22:29:55;;;;;;;3.35;0.68;;;;;;;9.40;98.19;97403.22;10391714;28;20049;-83
2024/01/02 22:35:06;;;;;;;4.18;0.70;;;;;;;9.25;95.12;97423.88;10382612;28;20065;-82
2024/01/02 22:40:23;;;;;;;2.20;1.37;;;;;;;9.47;93.82;97424.75;10365891;28;20045;-82
2024/01/02 22:45:39;;;;;;;4.30;0.90;;;;;;;9.70;94.09;97435.28;10409809;28;21011;-82
2024/01/02 22:50:45;;;;;;;1.75;0.65;;;;;;;9.45;91.49;97435.63;10408472;28;20056;-82
2024/01/02 22:55:55;;;;;;;4.47;0.80;;;;;;;8.88;97.14;97433.69;10386069;28;20057;-83
2024/01/02 23:01:03;;;;;;;5.68;0.93;;;;;;;8.99;100.00;97443.94;10372846;28;21031;-82
2024/01/02 23:06:12;;;;;;;7.95;0.98;;;;;;;9.09;96.11;97434.78;10392323;28;20045;-83
2024/01/02 23:11:36;;;;;;;7.97;1.52;;;;;;;9.47;92.97;97494.41;10409189;28;20453;-83
2024/01/02 23:16:46;;;;;;;4.40;1.27;;;;;;;9.35;90.04;97423.56;10361088;28;20529;-81
2024/01/02 23:21:56;;;;;;;4.85;0.60;;;;;;;9.44;88.73;97431.31;10365245;28;20491;-82
2024/01/02 23:27:09;;;;;;;5.90;1.13;;;;;;;9.55;87.12;97430.00;10372509;28;20153;-80
2024/01/02 23:32:24;;;;;;;2.72;0.93;;;;;;;9.53;87.24;97425.84;10369654;28;20125;-82
2024/01/02 23:37:39;;;;;;;3.30;0.90;;;;;;;9.79;86.42;97447.56;10367191;28;20547;-81
2024/01/02 23:42:50;;;;;;;3.85;0.90;;;;;;;9.47;87.90;97492.53;10363305;28;20479;-79
2024/01/02 23:48:00;;;;;;;3.78;0.73;;;;;;;9.70;84.51;97435.28;10408933;28;20038;-81
2024/01/02 23:53:11;;;;;;;10.33;1.70;;;;;;;9.69;84.59;97445.19;10380840;28;20053;-82